sensor_id;sensor_type;location;lat;lon;timestamp;P1;durP1;ratioP1;P2;durP2;ratioP2
13868;SDS011;7004;48.206;16.402;2022-08-19T00:00:47;7.83;;;3.80;;
13868;SDS011;7004;48.206;16.402;2022-08-19T00:03:15;9.80;;;4.03;;
13868;SDS011;7004;48.206;16.402;2022-08-19T00:05:41;7.93;;;4.20;;
13868;SDS011;7004;48.206;16.402;2022-08-19T00:08:07;11.63;;;4.33;;
13868;SDS011;7004;48.206;16.402;2022-08-19T00:10:33;9.03;;;4.00;;
13868;SDS011;7004;48.206;16.402;2022-08-19T00:12:59;9.70;;;4.63;;
13868;SDS011;7004;48.206;16.402;2022-08-19T00:15:25;9.90;;;4.17;;
13868;SDS011;7004;48.206;16.402;2022-08-19T00:17:52;9.20;;;4.40;;
13868;SDS011;7004;48.206;16.402;2022-08-19T00:20:20;9.90;;;4.23;;
13868;SDS011;7004;48.206;16.402;2022-08-19T00:22:47;15.50;;;4.97;;
13868;SDS011;7004;48.206;16.402;2022-08-19T00:25:14;11.63;;;4.33;;
13868;SDS011;7004;48.206;16.402;2022-08-19T00:27:42;11.77;;;4.80;;
13868;SDS011;7004;48.206;16.402;2022-08-19T00:30:10;7.50;;;4.27;;
13868;SDS011;7004;48.206;16.402;2022-08-19T00:32:38;9.57;;;4.30;;
13868;SDS011;7004;48.206;16.402;2022-08-19T00:35:05;7.53;;;4.03;;
13868;SDS011;7004;48.206;16.402;2022-08-19T00:37:32;14.60;;;4.50;;
13868;SDS011;7004;48.206;16.402;2022-08-19T00:40:00;7.63;;;4.10;;
13868;SDS011;7004;48.206;16.402;2022-08-19T00:42:29;10.20;;;4.77;;
13868;SDS011;7004;48.206;16.402;2022-08-19T00:44:56;9.07;;;4.10;;
13868;SDS011;7004;48.206;16.402;2022-08-19T00:47:23;7.77;;;4.37;;
13868;SDS011;7004;48.206;16.402;2022-08-19T00:49:53;10.07;;;4.70;;
13868;SDS011;7004;48.206;16.402;2022-08-19T00:52:24;12.47;;;5.00;;
13868;SDS011;7004;48.206;16.402;2022-08-19T00:54:57;11.63;;;4.70;;
13868;SDS011;7004;48.206;16.402;2022-08-19T00:57:27;11.57;;;4.50;;
13868;SDS011;7004;48.206;16.402;2022-08-19T01:00:00;11.13;;;4.60;;
13868;SDS011;7004;48.206;16.402;2022-08-19T01:02:30;11.37;;;4.40;;
13868;SDS011;7004;48.206;16.402;2022-08-19T01:04:59;9.17;;;4.30;;
13868;SDS011;7004;48.206;16.402;2022-08-19T01:07:32;7.23;;;4.17;;
13868;SDS011;7004;48.206;16.402;2022-08-19T01:10:00;8.60;;;4.37;;
13868;SDS011;7004;48.206;16.402;2022-08-19T01:12:26;10.33;;;4.47;;
13868;SDS011;7004;48.206;16.402;2022-08-19T01:14:53;9.03;;;4.57;;
13868;SDS011;7004;48.206;16.402;2022-08-19T01:17:20;9.03;;;4.20;;
13868;SDS011;7004;48.206;16.402;2022-08-19T01:19:46;8.30;;;3.83;;
13868;SDS011;7004;48.206;16.402;2022-08-19T01:24:51;8.40;;;4.20;;
13868;SDS011;7004;48.206;16.402;2022-08-19T01:27:18;11.57;;;4.10;;
13868;SDS011;7004;48.206;16.402;2022-08-19T01:29:44;12.23;;;4.17;;
13868;SDS011;7004;48.206;16.402;2022-08-19T01:32:12;8.80;;;4.63;;
13868;SDS011;7004;48.206;16.402;2022-08-19T01:34:41;10.07;;;5.03;;
13868;SDS011;7004;48.206;16.402;2022-08-19T01:37:14;12.60;;;4.50;;
13868;SDS011;7004;48.206;16.402;2022-08-19T01:39:41;10.57;;;3.90;;
13868;SDS011;7004;48.206;16.402;2022-08-19T01:42:08;9.03;;;4.70;;
13868;SDS011;7004;48.206;16.402;2022-08-19T01:44:38;12.60;;;4.67;;
13868;SDS011;7004;48.206;16.402;2022-08-19T01:47:09;13.57;;;4.70;;
13868;SDS011;7004;48.206;16.402;2022-08-19T01:49:36;8.30;;;4.63;;
13868;SDS011;7004;48.206;16.402;2022-08-19T01:52:04;11.83;;;4.53;;
13868;SDS011;7004;48.206;16.402;2022-08-19T01:54:31;6.57;;;4.00;;
13868;SDS011;7004;48.206;16.402;2022-08-19T01:57:03;8.60;;;4.40;;
13868;SDS011;7004;48.206;16.402;2022-08-19T01:59:43;12.07;;;4.73;;
13868;SDS011;7004;48.206;16.402;2022-08-19T02:02:10;8.93;;;4.83;;
13868;SDS011;7004;48.206;16.402;2022-08-19T02:04:37;14.80;;;5.00;;
13868;SDS011;7004;48.206;16.402;2022-08-19T02:07:04;9.80;;;4.77;;
13868;SDS011;7004;48.206;16.402;2022-08-19T02:09:33;13.03;;;4.33;;
13868;SDS011;7004;48.206;16.402;2022-08-19T02:12:00;7.97;;;4.50;;
13868;SDS011;7004;48.206;16.402;2022-08-19T02:14:27;10.40;;;4.63;;
13868;SDS011;7004;48.206;16.402;2022-08-19T02:16:53;11.07;;;4.30;;
13868;SDS011;7004;48.206;16.402;2022-08-19T02:19:22;9.07;;;4.23;;
13868;SDS011;7004;48.206;16.402;2022-08-19T02:21:48;9.07;;;4.37;;
13868;SDS011;7004;48.206;16.402;2022-08-19T02:24:16;8.83;;;3.93;;
13868;SDS011;7004;48.206;16.402;2022-08-19T02:26:43;7.47;;;4.10;;
13868;SDS011;7004;48.206;16.402;2022-08-19T02:29:09;8.37;;;4.33;;
13868;SDS011;7004;48.206;16.402;2022-08-19T02:31:39;9.10;;;4.50;;
13868;SDS011;7004;48.206;16.402;2022-08-19T02:34:05;10.80;;;4.43;;
13868;SDS011;7004;48.206;16.402;2022-08-19T02:36:31;15.27;;;4.77;;
13868;SDS011;7004;48.206;16.402;2022-08-19T02:38:57;10.53;;;4.10;;
13868;SDS011;7004;48.206;16.402;2022-08-19T02:41:24;9.10;;;3.93;;
13868;SDS011;7004;48.206;16.402;2022-08-19T02:43:54;9.67;;;4.43;;
13868;SDS011;7004;48.206;16.402;2022-08-19T02:46:24;8.37;;;4.10;;
13868;SDS011;7004;48.206;16.402;2022-08-19T02:48:56;7.73;;;4.23;;
13868;SDS011;7004;48.206;16.402;2022-08-19T02:51:36;10.10;;;4.00;;
13868;SDS011;7004;48.206;16.402;2022-08-19T02:54:06;7.60;;;4.07;;
13868;SDS011;7004;48.206;16.402;2022-08-19T02:56:36;10.87;;;4.27;;
13868;SDS011;7004;48.206;16.402;2022-08-19T02:59:05;13.03;;;4.63;;
13868;SDS011;7004;48.206;16.402;2022-08-19T03:01:37;11.00;;;4.13;;
13868;SDS011;7004;48.206;16.402;2022-08-19T03:04:06;8.70;;;4.27;;
13868;SDS011;7004;48.206;16.402;2022-08-19T03:06:39;9.43;;;4.10;;
13868;SDS011;7004;48.206;16.402;2022-08-19T03:09:18;7.23;;;4.13;;
13868;SDS011;7004;48.206;16.402;2022-08-19T03:11:45;12.10;;;4.30;;
13868;SDS011;7004;48.206;16.402;2022-08-19T03:14:12;8.50;;;4.00;;
13868;SDS011;7004;48.206;16.402;2022-08-19T03:16:43;10.77;;;4.37;;
13868;SDS011;7004;48.206;16.402;2022-08-19T03:19:12;7.53;;;4.47;;
13868;SDS011;7004;48.206;16.402;2022-08-19T03:21:39;13.57;;;4.70;;
13868;SDS011;7004;48.206;16.402;2022-08-19T03:24:08;9.17;;;4.40;;
13868;SDS011;7004;48.206;16.402;2022-08-19T03:26:41;14.47;;;4.60;;
13868;SDS011;7004;48.206;16.402;2022-08-19T03:29:20;12.07;;;4.43;;
13868;SDS011;7004;48.206;16.402;2022-08-19T03:31:46;10.27;;;4.80;;
13868;SDS011;7004;48.206;16.402;2022-08-19T03:34:15;8.57;;;4.70;;
13868;SDS011;7004;48.206;16.402;2022-08-19T03:36:45;10.97;;;5.13;;
13868;SDS011;7004;48.206;16.402;2022-08-19T03:39:13;7.93;;;4.67;;
13868;SDS011;7004;48.206;16.402;2022-08-19T03:41:42;9.10;;;4.40;;
13868;SDS011;7004;48.206;16.402;2022-08-19T03:44:10;9.00;;;4.93;;
13868;SDS011;7004;48.206;16.402;2022-08-19T03:46:41;18.00;;;5.10;;
13868;SDS011;7004;48.206;16.402;2022-08-19T03:49:07;11.70;;;5.30;;
13868;SDS011;7004;48.206;16.402;2022-08-19T03:51:35;9.50;;;4.77;;
13868;SDS011;7004;48.206;16.402;2022-08-19T03:54:04;12.07;;;4.90;;
13868;SDS011;7004;48.206;16.402;2022-08-19T03:56:34;11.33;;;5.07;;
13868;SDS011;7004;48.206;16.402;2022-08-19T03:59:03;12.50;;;5.03;;
13868;SDS011;7004;48.206;16.402;2022-08-19T04:01:38;8.20;;;4.23;;
13868;SDS011;7004;48.206;16.402;2022-08-19T04:04:05;9.70;;;5.30;;
13868;SDS011;7004;48.206;16.402;2022-08-19T04:06:32;10.20;;;4.80;;
13868;SDS011;7004;48.206;16.402;2022-08-19T04:09:02;8.90;;;4.33;;
13868;SDS011;7004;48.206;16.402;2022-08-19T04:11:33;8.70;;;4.50;;
13868;SDS011;7004;48.206;16.402;2022-08-19T04:14:09;10.57;;;5.13;;
13868;SDS011;7004;48.206;16.402;2022-08-19T04:16:41;11.47;;;4.40;;
13868;SDS011;7004;48.206;16.402;2022-08-19T04:19:11;13.03;;;4.93;;
13868;SDS011;7004;48.206;16.402;2022-08-19T04:21:39;8.20;;;4.53;;
13868;SDS011;7004;48.206;16.402;2022-08-19T04:24:09;11.67;;;5.20;;
13868;SDS011;7004;48.206;16.402;2022-08-19T04:26:35;11.07;;;5.33;;
13868;SDS011;7004;48.206;16.402;2022-08-19T04:29:24;10.77;;;4.73;;
13868;SDS011;7004;48.206;16.402;2022-08-19T04:31:50;10.07;;;4.67;;
13868;SDS011;7004;48.206;16.402;2022-08-19T04:34:19;8.83;;;4.83;;
13868;SDS011;7004;48.206;16.402;2022-08-19T04:36:47;9.93;;;5.10;;
13868;SDS011;7004;48.206;16.402;2022-08-19T04:39:17;9.43;;;4.30;;
13868;SDS011;7004;48.206;16.402;2022-08-19T04:41:47;11.47;;;4.63;;
13868;SDS011;7004;48.206;16.402;2022-08-19T04:44:33;10.53;;;4.90;;
13868;SDS011;7004;48.206;16.402;2022-08-19T04:47:01;9.17;;;4.43;;
13868;SDS011;7004;48.206;16.402;2022-08-19T04:49:31;11.37;;;5.17;;
13868;SDS011;7004;48.206;16.402;2022-08-19T04:51:57;10.87;;;5.13;;
13868;SDS011;7004;48.206;16.402;2022-08-19T04:54:24;13.00;;;4.53;;
13868;SDS011;7004;48.206;16.402;2022-08-19T04:56:51;9.47;;;5.93;;
13868;SDS011;7004;48.206;16.402;2022-08-19T04:59:19;11.77;;;5.47;;
13868;SDS011;7004;48.206;16.402;2022-08-19T05:01:47;17.87;;;5.93;;
13868;SDS011;7004;48.206;16.402;2022-08-19T05:04:15;11.37;;;5.50;;
13868;SDS011;7004;48.206;16.402;2022-08-19T05:06:46;10.10;;;4.97;;
13868;SDS011;7004;48.206;16.402;2022-08-19T05:09:14;13.27;;;5.23;;
13868;SDS011;7004;48.206;16.402;2022-08-19T05:11:41;10.60;;;5.10;;
13868;SDS011;7004;48.206;16.402;2022-08-19T05:14:09;14.63;;;5.50;;
13868;SDS011;7004;48.206;16.402;2022-08-19T05:16:38;12.27;;;5.30;;
13868;SDS011;7004;48.206;16.402;2022-08-19T05:19:05;18.10;;;6.17;;
13868;SDS011;7004;48.206;16.402;2022-08-19T05:21:49;10.53;;;5.63;;
13868;SDS011;7004;48.206;16.402;2022-08-19T05:24:34;17.33;;;7.13;;
13868;SDS011;7004;48.206;16.402;2022-08-19T05:27:02;13.33;;;7.10;;
13868;SDS011;7004;48.206;16.402;2022-08-19T05:29:30;11.73;;;6.37;;
13868;SDS011;7004;48.206;16.402;2022-08-19T05:31:59;12.80;;;5.93;;
13868;SDS011;7004;48.206;16.402;2022-08-19T05:34:30;13.70;;;8.37;;
13868;SDS011;7004;48.206;16.402;2022-08-19T05:36:58;11.67;;;8.90;;
13868;SDS011;7004;48.206;16.402;2022-08-19T05:39:28;11.30;;;9.50;;
13868;SDS011;7004;48.206;16.402;2022-08-19T05:41:58;13.50;;;8.77;;
13868;SDS011;7004;48.206;16.402;2022-08-19T05:44:34;10.50;;;8.50;;
13868;SDS011;7004;48.206;16.402;2022-08-19T05:47:04;12.23;;;8.50;;
13868;SDS011;7004;48.206;16.402;2022-08-19T05:49:34;14.87;;;9.50;;
13868;SDS011;7004;48.206;16.402;2022-08-19T05:52:05;10.77;;;9.70;;
13868;SDS011;7004;48.206;16.402;2022-08-19T05:54:38;10.63;;;9.40;;
13868;SDS011;7004;48.206;16.402;2022-08-19T05:57:06;13.70;;;9.87;;
13868;SDS011;7004;48.206;16.402;2022-08-19T05:59:34;13.73;;;9.37;;
13868;SDS011;7004;48.206;16.402;2022-08-19T06:02:01;12.37;;;9.07;;
13868;SDS011;7004;48.206;16.402;2022-08-19T06:04:29;10.87;;;9.00;;
13868;SDS011;7004;48.206;16.402;2022-08-19T06:06:55;12.07;;;10.03;;
13868;SDS011;7004;48.206;16.402;2022-08-19T06:09:21;11.93;;;9.27;;
13868;SDS011;7004;48.206;16.402;2022-08-19T06:11:49;14.13;;;9.20;;
13868;SDS011;7004;48.206;16.402;2022-08-19T06:14:21;12.83;;;8.47;;
13868;SDS011;7004;48.206;16.402;2022-08-19T06:16:50;13.90;;;8.83;;
13868;SDS011;7004;48.206;16.402;2022-08-19T06:19:18;10.80;;;9.17;;
13868;SDS011;7004;48.206;16.402;2022-08-19T06:21:48;10.27;;;9.10;;
13868;SDS011;7004;48.206;16.402;2022-08-19T06:24:17;11.83;;;9.07;;
13868;SDS011;7004;48.206;16.402;2022-08-19T06:26:49;10.33;;;8.67;;
13868;SDS011;7004;48.206;16.402;2022-08-19T06:29:19;9.70;;;8.40;;
13868;SDS011;7004;48.206;16.402;2022-08-19T06:31:48;8.70;;;7.70;;
13868;SDS011;7004;48.206;16.402;2022-08-19T06:34:18;11.97;;;8.63;;
13868;SDS011;7004;48.206;16.402;2022-08-19T06:36:46;9.57;;;8.57;;
13868;SDS011;7004;48.206;16.402;2022-08-19T06:39:34;9.50;;;8.23;;
13868;SDS011;7004;48.206;16.402;2022-08-19T06:42:04;12.40;;;8.37;;
13868;SDS011;7004;48.206;16.402;2022-08-19T06:44:34;8.97;;;8.07;;
13868;SDS011;7004;48.206;16.402;2022-08-19T06:47:06;8.60;;;7.80;;
13868;SDS011;7004;48.206;16.402;2022-08-19T06:49:34;8.23;;;7.47;;
13868;SDS011;7004;48.206;16.402;2022-08-19T06:52:02;9.37;;;7.90;;
13868;SDS011;7004;48.206;16.402;2022-08-19T06:54:28;9.87;;;8.13;;
13868;SDS011;7004;48.206;16.402;2022-08-19T06:56:56;14.20;;;8.00;;
13868;SDS011;7004;48.206;16.402;2022-08-19T06:59:25;11.37;;;8.40;;
13868;SDS011;7004;48.206;16.402;2022-08-19T07:01:53;11.40;;;7.97;;
13868;SDS011;7004;48.206;16.402;2022-08-19T07:04:23;10.37;;;7.97;;
13868;SDS011;7004;48.206;16.402;2022-08-19T07:09:49;10.50;;;7.30;;
13868;SDS011;7004;48.206;16.402;2022-08-19T07:12:18;14.07;;;8.03;;
13868;SDS011;7004;48.206;16.402;2022-08-19T07:14:45;10.93;;;8.17;;
13868;SDS011;7004;48.206;16.402;2022-08-19T07:17:14;9.13;;;7.10;;
13868;SDS011;7004;48.206;16.402;2022-08-19T07:19:40;10.33;;;7.83;;
13868;SDS011;7004;48.206;16.402;2022-08-19T07:22:08;10.30;;;7.80;;
13868;SDS011;7004;48.206;16.402;2022-08-19T07:24:35;10.77;;;8.13;;
13868;SDS011;7004;48.206;16.402;2022-08-19T07:27:03;12.10;;;7.33;;
13868;SDS011;7004;48.206;16.402;2022-08-19T07:29:32;8.90;;;8.00;;
13868;SDS011;7004;48.206;16.402;2022-08-19T07:32:00;8.93;;;8.03;;
13868;SDS011;7004;48.206;16.402;2022-08-19T07:34:29;8.60;;;7.17;;
13868;SDS011;7004;48.206;16.402;2022-08-19T07:36:56;9.10;;;7.23;;
13868;SDS011;7004;48.206;16.402;2022-08-19T07:39:24;8.90;;;7.40;;
13868;SDS011;7004;48.206;16.402;2022-08-19T07:41:55;10.70;;;7.07;;
13868;SDS011;7004;48.206;16.402;2022-08-19T07:44:23;7.90;;;7.20;;
13868;SDS011;7004;48.206;16.402;2022-08-19T07:46:51;9.37;;;7.00;;
13868;SDS011;7004;48.206;16.402;2022-08-19T07:49:21;11.33;;;6.97;;
13868;SDS011;7004;48.206;16.402;2022-08-19T07:51:52;8.30;;;6.77;;
13868;SDS011;7004;48.206;16.402;2022-08-19T07:54:23;7.03;;;6.03;;
13868;SDS011;7004;48.206;16.402;2022-08-19T07:56:52;9.07;;;6.37;;
13868;SDS011;7004;48.206;16.402;2022-08-19T07:59:19;8.23;;;6.67;;
13868;SDS011;7004;48.206;16.402;2022-08-19T08:01:47;10.83;;;6.60;;
13868;SDS011;7004;48.206;16.402;2022-08-19T08:04:15;11.20;;;6.67;;
13868;SDS011;7004;48.206;16.402;2022-08-19T08:07:02;11.47;;;6.83;;
13868;SDS011;7004;48.206;16.402;2022-08-19T08:09:49;9.70;;;6.73;;
13868;SDS011;7004;48.206;16.402;2022-08-19T08:12:18;10.10;;;6.20;;
13868;SDS011;7004;48.206;16.402;2022-08-19T08:14:54;12.77;;;6.63;;
13868;SDS011;7004;48.206;16.402;2022-08-19T08:17:28;6.97;;;6.10;;
13868;SDS011;7004;48.206;16.402;2022-08-19T08:19:55;10.93;;;6.20;;
13868;SDS011;7004;48.206;16.402;2022-08-19T08:22:23;17.47;;;6.40;;
13868;SDS011;7004;48.206;16.402;2022-08-19T08:25:10;9.40;;;6.97;;
13868;SDS011;7004;48.206;16.402;2022-08-19T08:27:44;11.90;;;6.27;;
13868;SDS011;7004;48.206;16.402;2022-08-19T08:30:30;8.17;;;6.57;;
13868;SDS011;7004;48.206;16.402;2022-08-19T08:32:59;8.73;;;6.10;;
13868;SDS011;7004;48.206;16.402;2022-08-19T08:35:25;12.03;;;6.00;;
13868;SDS011;7004;48.206;16.402;2022-08-19T08:37:52;11.07;;;6.60;;
13868;SDS011;7004;48.206;16.402;2022-08-19T08:40:39;10.97;;;6.30;;
13868;SDS011;7004;48.206;16.402;2022-08-19T08:43:34;17.10;;;6.70;;
13868;SDS011;7004;48.206;16.402;2022-08-19T08:46:09;10.87;;;6.10;;
13868;SDS011;7004;48.206;16.402;2022-08-19T08:48:56;8.10;;;5.70;;
13868;SDS011;7004;48.206;16.402;2022-08-19T08:51:51;10.93;;;6.20;;
13868;SDS011;7004;48.206;16.402;2022-08-19T08:54:37;12.80;;;6.70;;
13868;SDS011;7004;48.206;16.402;2022-08-19T09:00:08;11.70;;;6.10;;
13868;SDS011;7004;48.206;16.402;2022-08-19T09:02:42;10.77;;;6.53;;
13868;SDS011;7004;48.206;16.402;2022-08-19T09:05:09;12.30;;;6.37;;
13868;SDS011;7004;48.206;16.402;2022-08-19T09:13:13;13.20;;;6.13;;
13868;SDS011;7004;48.206;16.402;2022-08-19T09:15:47;11.10;;;6.50;;
13868;SDS011;7004;48.206;16.402;2022-08-19T09:18:42;14.13;;;6.43;;
13868;SDS011;7004;48.206;16.402;2022-08-19T09:21:12;12.80;;;6.23;;
13868;SDS011;7004;48.206;16.402;2022-08-19T09:23:41;11.13;;;6.20;;
13868;SDS011;7004;48.206;16.402;2022-08-19T09:26:13;13.77;;;6.53;;
13868;SDS011;7004;48.206;16.402;2022-08-19T09:28:44;10.97;;;6.47;;
13868;SDS011;7004;48.206;16.402;2022-08-19T09:31:16;8.20;;;6.00;;
13868;SDS011;7004;48.206;16.402;2022-08-19T09:33:50;10.93;;;6.93;;
13868;SDS011;7004;48.206;16.402;2022-08-19T09:36:18;14.63;;;6.00;;
13868;SDS011;7004;48.206;16.402;2022-08-19T09:38:47;10.73;;;6.33;;
13868;SDS011;7004;48.206;16.402;2022-08-19T09:41:15;11.93;;;6.23;;
13868;SDS011;7004;48.206;16.402;2022-08-19T09:43:45;10.63;;;6.43;;
13868;SDS011;7004;48.206;16.402;2022-08-19T09:46:17;9.60;;;5.50;;
13868;SDS011;7004;48.206;16.402;2022-08-19T09:48:46;8.73;;;6.10;;
13868;SDS011;7004;48.206;16.402;2022-08-19T09:51:15;12.60;;;5.70;;
13868;SDS011;7004;48.206;16.402;2022-08-19T09:53:45;13.00;;;5.77;;
13868;SDS011;7004;48.206;16.402;2022-08-19T09:56:12;11.23;;;5.80;;
13868;SDS011;7004;48.206;16.402;2022-08-19T09:58:39;12.03;;;5.93;;
13868;SDS011;7004;48.206;16.402;2022-08-19T10:01:06;9.67;;;5.77;;
13868;SDS011;7004;48.206;16.402;2022-08-19T10:03:34;12.27;;;6.30;;
13868;SDS011;7004;48.206;16.402;2022-08-19T10:06:02;10.10;;;5.87;;
13868;SDS011;7004;48.206;16.402;2022-08-19T10:08:31;11.85;;;6.13;;
13868;SDS011;7004;48.206;16.402;2022-08-19T10:11:00;15.07;;;6.63;;
13868;SDS011;7004;48.206;16.402;2022-08-19T10:13:29;11.88;;;6.20;;
13868;SDS011;7004;48.206;16.402;2022-08-19T10:16:10;9.60;;;5.70;;
13868;SDS011;7004;48.206;16.402;2022-08-19T10:18:41;13.20;;;5.90;;
13868;SDS011;7004;48.206;16.402;2022-08-19T10:21:10;12.30;;;5.63;;
13868;SDS011;7004;48.206;16.402;2022-08-19T10:23:42;12.00;;;6.03;;
13868;SDS011;7004;48.206;16.402;2022-08-19T10:26:13;14.27;;;5.97;;
13868;SDS011;7004;48.206;16.402;2022-08-19T10:28:43;16.70;;;6.50;;
13868;SDS011;7004;48.206;16.402;2022-08-19T10:31:13;10.87;;;6.10;;
13868;SDS011;7004;48.206;16.402;2022-08-19T10:33:47;11.77;;;6.00;;
13868;SDS011;7004;48.206;16.402;2022-08-19T10:36:15;11.83;;;6.10;;
13868;SDS011;7004;48.206;16.402;2022-08-19T10:38:45;11.00;;;6.10;;
13868;SDS011;7004;48.206;16.402;2022-08-19T10:41:17;9.97;;;6.60;;
13868;SDS011;7004;48.206;16.402;2022-08-19T10:43:52;10.23;;;6.47;;
13868;SDS011;7004;48.206;16.402;2022-08-19T10:46:22;15.40;;;6.37;;
13868;SDS011;7004;48.206;16.402;2022-08-19T10:48:49;10.87;;;6.00;;
13868;SDS011;7004;48.206;16.402;2022-08-19T10:51:16;13.93;;;6.53;;
13868;SDS011;7004;48.206;16.402;2022-08-19T10:54:01;10.17;;;5.83;;
13868;SDS011;7004;48.206;16.402;2022-08-19T10:56:29;15.07;;;6.10;;
13868;SDS011;7004;48.206;16.402;2022-08-19T10:59:14;9.80;;;6.40;;
13868;SDS011;7004;48.206;16.402;2022-08-19T11:01:42;11.47;;;6.60;;
13868;SDS011;7004;48.206;16.402;2022-08-19T11:04:11;8.57;;;6.40;;
13868;SDS011;7004;48.206;16.402;2022-08-19T11:06:40;16.17;;;6.60;;
13868;SDS011;7004;48.206;16.402;2022-08-19T11:09:09;24.10;;;7.60;;
13868;SDS011;7004;48.206;16.402;2022-08-19T11:11:36;21.43;;;7.67;;
13868;SDS011;7004;48.206;16.402;2022-08-19T11:14:10;23.10;;;7.67;;
13868;SDS011;7004;48.206;16.402;2022-08-19T11:16:39;15.70;;;8.27;;
13868;SDS011;7004;48.206;16.402;2022-08-19T11:19:08;15.37;;;7.60;;
13868;SDS011;7004;48.206;16.402;2022-08-19T11:21:38;17.83;;;6.50;;
13868;SDS011;7004;48.206;16.402;2022-08-19T11:24:08;13.37;;;6.97;;
13868;SDS011;7004;48.206;16.402;2022-08-19T11:26:41;11.40;;;6.83;;
13868;SDS011;7004;48.206;16.402;2022-08-19T11:29:09;9.87;;;5.90;;
13868;SDS011;7004;48.206;16.402;2022-08-19T11:31:40;24.33;;;7.03;;
13868;SDS011;7004;48.206;16.402;2022-08-19T11:34:11;16.13;;;6.17;;
13868;SDS011;7004;48.206;16.402;2022-08-19T11:36:42;12.43;;;6.27;;
13868;SDS011;7004;48.206;16.402;2022-08-19T11:39:11;23.50;;;6.47;;
13868;SDS011;7004;48.206;16.402;2022-08-19T11:41:41;20.13;;;6.93;;
13868;SDS011;7004;48.206;16.402;2022-08-19T11:44:07;21.77;;;6.07;;
13868;SDS011;7004;48.206;16.402;2022-08-19T11:46:34;19.43;;;5.13;;
13868;SDS011;7004;48.206;16.402;2022-08-19T11:49:04;19.03;;;5.87;;
13868;SDS011;7004;48.206;16.402;2022-08-19T11:51:34;18.60;;;5.50;;
13868;SDS011;7004;48.206;16.402;2022-08-19T11:54:01;30.03;;;6.40;;
13868;SDS011;7004;48.206;16.402;2022-08-19T11:56:29;15.40;;;5.23;;
13868;SDS011;7004;48.206;16.402;2022-08-19T11:58:56;17.33;;;5.50;;
13868;SDS011;7004;48.206;16.402;2022-08-19T12:01:23;22.07;;;6.57;;
13868;SDS011;7004;48.206;16.402;2022-08-19T12:03:51;22.03;;;5.80;;
13868;SDS011;7004;48.206;16.402;2022-08-19T12:06:21;18.00;;;5.60;;
13868;SDS011;7004;48.206;16.402;2022-08-19T12:08:55;13.00;;;5.27;;
13868;SDS011;7004;48.206;16.402;2022-08-19T12:11:22;13.03;;;5.43;;
13868;SDS011;7004;48.206;16.402;2022-08-19T12:13:50;18.60;;;5.97;;
13868;SDS011;7004;48.206;16.402;2022-08-19T12:16:17;12.87;;;5.43;;
13868;SDS011;7004;48.206;16.402;2022-08-19T12:18:47;11.73;;;5.53;;
13868;SDS011;7004;48.206;16.402;2022-08-19T12:21:17;15.60;;;6.13;;
13868;SDS011;7004;48.206;16.402;2022-08-19T12:23:56;13.27;;;5.90;;
13868;SDS011;7004;48.206;16.402;2022-08-19T12:26:24;17.07;;;6.37;;
13868;SDS011;7004;48.206;16.402;2022-08-19T12:28:52;18.60;;;6.60;;
13868;SDS011;7004;48.206;16.402;2022-08-19T12:31:19;22.20;;;10.27;;
13868;SDS011;7004;48.206;16.402;2022-08-19T12:33:45;23.03;;;6.10;;
13868;SDS011;7004;48.206;16.402;2022-08-19T12:36:13;13.00;;;5.77;;
13868;SDS011;7004;48.206;16.402;2022-08-19T12:38:41;16.03;;;6.27;;
13868;SDS011;7004;48.206;16.402;2022-08-19T12:41:10;7.37;;;5.70;;
13868;SDS011;7004;48.206;16.402;2022-08-19T12:43:39;16.37;;;6.30;;
13868;SDS011;7004;48.206;16.402;2022-08-19T12:46:07;10.67;;;5.93;;
13868;SDS011;7004;48.206;16.402;2022-08-19T12:48:34;15.30;;;6.10;;
13868;SDS011;7004;48.206;16.402;2022-08-19T12:51:06;11.93;;;6.10;;
13868;SDS011;7004;48.206;16.402;2022-08-19T12:53:35;14.43;;;6.10;;
13868;SDS011;7004;48.206;16.402;2022-08-19T12:56:03;14.00;;;6.07;;
13868;SDS011;7004;48.206;16.402;2022-08-19T12:58:30;13.90;;;5.90;;
13868;SDS011;7004;48.206;16.402;2022-08-19T13:00:59;13.03;;;6.67;;
13868;SDS011;7004;48.206;16.402;2022-08-19T13:03:41;17.60;;;6.23;;
13868;SDS011;7004;48.206;16.402;2022-08-19T13:06:09;18.53;;;6.33;;
13868;SDS011;7004;48.206;16.402;2022-08-19T13:08:35;16.20;;;6.10;;
13868;SDS011;7004;48.206;16.402;2022-08-19T13:11:14;18.57;;;6.50;;
13868;SDS011;7004;48.206;16.402;2022-08-19T13:13:43;16.07;;;6.00;;
13868;SDS011;7004;48.206;16.402;2022-08-19T13:16:12;16.43;;;5.73;;
13868;SDS011;7004;48.206;16.402;2022-08-19T13:18:40;18.07;;;5.23;;
13868;SDS011;7004;48.206;16.402;2022-08-19T13:21:10;16.13;;;6.20;;
13868;SDS011;7004;48.206;16.402;2022-08-19T13:23:39;21.50;;;5.80;;
13868;SDS011;7004;48.206;16.402;2022-08-19T13:26:07;19.53;;;5.87;;
13868;SDS011;7004;48.206;16.402;2022-08-19T13:28:35;14.27;;;5.80;;
13868;SDS011;7004;48.206;16.402;2022-08-19T13:31:21;10.17;;;5.37;;
13868;SDS011;7004;48.206;16.402;2022-08-19T13:34:08;14.27;;;5.53;;
13868;SDS011;7004;48.206;16.402;2022-08-19T13:36:35;15.10;;;5.70;;
13868;SDS011;7004;48.206;16.402;2022-08-19T13:39:03;22.37;;;6.07;;
13868;SDS011;7004;48.206;16.402;2022-08-19T13:41:31;12.77;;;5.03;;
13868;SDS011;7004;48.206;16.402;2022-08-19T13:43:59;21.90;;;5.90;;
13868;SDS011;7004;48.206;16.402;2022-08-19T13:46:25;19.87;;;5.10;;
13868;SDS011;7004;48.206;16.402;2022-08-19T13:48:52;15.10;;;5.90;;
13868;SDS011;7004;48.206;16.402;2022-08-19T13:51:18;15.87;;;6.07;;
13868;SDS011;7004;48.206;16.402;2022-08-19T13:53:44;12.33;;;5.30;;
13868;SDS011;7004;48.206;16.402;2022-08-19T13:56:12;15.03;;;5.27;;
13868;SDS011;7004;48.206;16.402;2022-08-19T13:58:41;12.73;;;5.53;;
13868;SDS011;7004;48.206;16.402;2022-08-19T14:01:09;13.73;;;5.17;;
13868;SDS011;7004;48.206;16.402;2022-08-19T14:03:36;10.10;;;4.97;;
13868;SDS011;7004;48.206;16.402;2022-08-19T14:06:03;14.03;;;5.50;;
13868;SDS011;7004;48.206;16.402;2022-08-19T14:08:30;18.33;;;5.73;;
13868;SDS011;7004;48.206;16.402;2022-08-19T14:10:57;10.97;;;5.90;;
13868;SDS011;7004;48.206;16.402;2022-08-19T14:13:24;12.70;;;5.87;;
13868;SDS011;7004;48.206;16.402;2022-08-19T14:15:51;14.97;;;5.90;;
13868;SDS011;7004;48.206;16.402;2022-08-19T14:18:18;14.43;;;5.70;;
13868;SDS011;7004;48.206;16.402;2022-08-19T14:20:44;12.37;;;5.07;;
13868;SDS011;7004;48.206;16.402;2022-08-19T14:23:10;13.70;;;5.70;;
13868;SDS011;7004;48.206;16.402;2022-08-19T14:25:38;18.63;;;5.80;;
13868;SDS011;7004;48.206;16.402;2022-08-19T14:28:06;14.03;;;5.93;;
13868;SDS011;7004;48.206;16.402;2022-08-19T14:30:41;13.53;;;5.43;;
13868;SDS011;7004;48.206;16.402;2022-08-19T14:33:09;17.80;;;5.90;;
13868;SDS011;7004;48.206;16.402;2022-08-19T14:35:36;13.73;;;5.43;;
13868;SDS011;7004;48.206;16.402;2022-08-19T14:38:03;14.57;;;5.20;;
13868;SDS011;7004;48.206;16.402;2022-08-19T14:40:31;16.00;;;5.50;;
13868;SDS011;7004;48.206;16.402;2022-08-19T14:43:00;13.47;;;5.03;;
13868;SDS011;7004;48.206;16.402;2022-08-19T14:45:34;9.97;;;5.87;;
13868;SDS011;7004;48.206;16.402;2022-08-19T14:48:06;17.03;;;5.43;;
13868;SDS011;7004;48.206;16.402;2022-08-19T14:50:33;15.07;;;5.40;;
13868;SDS011;7004;48.206;16.402;2022-08-19T14:53:04;11.93;;;5.20;;
13868;SDS011;7004;48.206;16.402;2022-08-19T14:55:33;16.73;;;5.50;;
13868;SDS011;7004;48.206;16.402;2022-08-19T14:58:00;14.80;;;4.77;;
13868;SDS011;7004;48.206;16.402;2022-08-19T15:00:26;18.43;;;4.47;;
13868;SDS011;7004;48.206;16.402;2022-08-19T15:02:53;14.63;;;5.10;;
13868;SDS011;7004;48.206;16.402;2022-08-19T15:05:20;14.17;;;6.13;;
13868;SDS011;7004;48.206;16.402;2022-08-19T15:07:47;9.20;;;4.30;;